Time;durP1;ratioP1;P1;durP2;ratioP2;P2;SDS_P1;SDS_P2;PMS_P1;PMS_P2;Temp;Humidity;BMP_temperature;BMP_pressure;BME280_temperature;BME280_humidity;BME280_pressure;Samples;Min_cycle;Max_cycle;Signal;HPM_P1;HPM_P2
2023/06/25 00:00:27;;;;;;;15.73;12.80;;;;;;;21.09;100.00;101968.56;5030945;28;20041;-72
2023/06/25 00:02:52;;;;;;;20.58;15.90;;;;;;;21.09;100.00;101962.28;5037173;28;20065;-72
2023/06/25 00:05:18;;;;;;;20.75;15.23;;;;;;;21.14;100.00;101966.28;5033170;28;20029;-72
2023/06/25 00:07:44;;;;;;;23.40;16.35;;;;;;;21.08;100.00;101965.97;5036936;28;20825;-72
2023/06/25 00:10:09;;;;;;;23.77;17.67;;;;;;;21.12;100.00;101959.28;5043488;28;20041;-72
2023/06/25 00:12:35;;;;;;;22.38;17.30;;;;;;;21.03;100.00;101960.94;5043823;28;20033;-72
2023/06/25 00:15:01;;;;;;;23.38;17.73;;;;;;;21.04;100.00;101956.41;5036808;28;20135;-72
2023/06/25 00:17:27;;;;;;;22.90;17.58;;;;;;;20.91;100.00;101960.22;5039049;28;20033;-72
2023/06/25 00:19:56;;;;;;;23.27;17.05;;;;;;;20.93;100.00;101952.81;5035426;28;20551;-73
2023/06/25 00:22:26;;;;;;;21.95;17.00;;;;;;;20.85;100.00;101965.31;5040849;28;20033;-72
2023/06/25 00:24:52;;;;;;;25.17;16.98;;;;;;;20.66;100.00;101956.09;5033733;28;20033;-72
2023/06/25 00:27:19;;;;;;;22.80;17.52;;;;;;;20.61;100.00;101961.06;5037335;28;20069;-72
2023/06/25 00:29:45;;;;;;;21.50;17.55;;;;;;;20.81;100.00;101961.16;5032116;28;20046;-73
2023/06/25 00:32:13;;;;;;;21.02;16.50;;;;;;;20.76;100.00;101953.44;5039172;28;20068;-72
2023/06/25 00:34:42;;;;;;;22.55;18.13;;;;;;;20.75;100.00;101954.44;5033515;28;20045;-72
2023/06/25 00:37:17;;;;;;;22.05;17.73;;;;;;;20.64;100.00;101957.25;5033433;28;20045;-73
2023/06/25 00:39:47;;;;;;;25.85;18.55;;;;;;;20.52;100.00;101952.91;5032466;28;20052;-72
2023/06/25 00:42:13;;;;;;;25.65;18.85;;;;;;;20.59;100.00;101951.38;5030781;28;20033;-73
2023/06/25 00:44:41;;;;;;;27.25;18.42;;;;;;;20.59;100.00;101946.81;5030846;28;20511;-72
2023/06/25 00:47:08;;;;;;;22.42;17.52;;;;;;;20.57;100.00;101945.22;5032175;28;20025;-72
2023/06/25 00:49:34;;;;;;;27.15;18.98;;;;;;;20.46;100.00;101946.13;5036323;28;20068;-72
2023/06/25 00:52:00;;;;;;;28.23;19.88;;;;;;;20.35;100.00;101946.22;5034960;28;20045;-72
2023/06/25 00:54:26;;;;;;;23.95;18.85;;;;;;;20.38;100.00;101941.41;5038291;28;20037;-73
2023/06/25 00:56:51;;;;;;;23.70;18.92;;;;;;;20.48;100.00;101941.44;5070776;27;20309;-72
2023/06/25 00:59:17;;;;;;;24.23;18.52;;;;;;;20.39;100.00;101936.84;5031958;28;20033;-72
2023/06/25 01:01:58;;;;;;;25.13;19.70;;;;;;;20.29;100.00;101938.63;5036161;28;20069;-72
2023/06/25 01:04:34;;;;;;;29.02;20.38;;;;;;;20.34;100.00;101937.22;5040294;28;21112;-72
2023/06/25 01:07:10;;;;;;;25.45;19.40;;;;;;;20.36;100.00;101934.38;5037339;28;20962;-73
2023/06/25 01:09:39;;;;;;;28.50;20.02;;;;;;;20.37;100.00;101927.97;5031987;28;20064;-72
2023/06/25 01:12:07;;;;;;;27.25;18.52;;;;;;;20.44;100.00;101931.88;5047907;28;20033;-72
2023/06/25 01:14:34;;;;;;;28.42;19.20;;;;;;;20.38;100.00;101932.38;5019167;28;20036;-73
2023/06/25 01:17:00;;;;;;;23.23;18.85;;;;;;;20.43;100.00;101927.41;5055031;28;20418;-72
2023/06/25 01:19:29;;;;;;;25.00;18.10;;;;;;;20.41;100.00;101919.44;5040600;28;20554;-73
2023/06/25 01:21:59;;;;;;;28.73;21.23;;;;;;;20.26;100.00;101918.06;5041180;28;20037;-73
2023/06/25 01:24:26;;;;;;;27.67;18.58;;;;;;;20.26;100.00;101914.50;5036420;28;20037;-72
2023/06/25 01:26:55;;;;;;;26.33;19.42;;;;;;;20.31;100.00;101918.53;5048860;28;20042;-73
2023/06/25 01:29:20;;;;;;;26.90;20.67;;;;;;;20.32;100.00;101916.66;5043959;28;20037;-72
2023/06/25 01:31:51;;;;;;;26.17;19.58;;;;;;;20.28;100.00;101913.41;5037578;28;20436;-72
2023/06/25 01:34:26;;;;;;;23.30;18.15;;;;;;;20.20;100.00;101905.06;5043020;28;20053;-73
2023/06/25 01:36:52;;;;;;;29.23;21.63;;;;;;;20.11;100.00;101906.72;5039496;28;20049;-73
2023/06/25 01:39:22;;;;;;;24.50;19.15;;;;;;;20.08;100.00;101901.59;5038379;28;21173;-73
2023/06/25 01:41:48;;;;;;;23.83;18.35;;;;;;;20.09;100.00;101905.16;5037678;28;20071;-73
2023/06/25 01:44:25;;;;;;;26.55;21.25;;;;;;;20.07;100.00;101899.00;5035916;28;20044;-73
2023/06/25 01:46:51;;;;;;;27.77;19.05;;;;;;;19.97;100.00;101901.63;5038849;28;20036;-72
2023/06/25 01:49:17;;;;;;;27.42;21.00;;;;;;;19.94;100.00;101901.06;5042522;28;20049;-72
2023/06/25 01:51:42;;;;;;;27.35;20.55;;;;;;;19.88;100.00;101897.00;5035543;28;20726;-71
2023/06/25 01:54:08;;;;;;;30.45;21.00;;;;;;;19.87;100.00;101906.13;5045234;28;20048;-72
2023/06/25 01:56:33;;;;;;;28.77;20.73;;;;;;;19.83;100.00;101891.13;5037104;28;20527;-72
2023/06/25 01:58:59;;;;;;;26.23;20.20;;;;;;;19.80;100.00;101894.13;5038648;28;20040;-74
2023/06/25 02:01:24;;;;;;;26.92;21.40;;;;;;;19.71;100.00;101894.91;5043230;28;20042;-72
2023/06/25 02:03:50;;;;;;;28.38;21.95;;;;;;;19.75;100.00;101893.66;5040553;28;20040;-71
2023/06/25 02:06:16;;;;;;;29.10;20.80;;;;;;;19.58;100.00;101874.28;5042199;28;20853;-72
2023/06/25 02:08:41;;;;;;;27.63;20.73;;;;;;;19.57;100.00;101883.34;5043475;28;20116;-71
2023/06/25 02:11:08;;;;;;;33.20;22.00;;;;;;;19.56;100.00;101884.34;5037572;28;20032;-71
2023/06/25 02:13:37;;;;;;;27.08;20.92;;;;;;;19.59;100.00;101873.31;5036502;28;20288;-74
2023/06/25 02:16:02;;;;;;;25.63;20.55;;;;;;;19.59;100.00;101872.44;5031878;28;20072;-74
2023/06/25 02:18:29;;;;;;;28.77;21.13;;;;;;;19.50;100.00;101867.78;5032577;28;20356;-71
2023/06/25 02:20:55;;;;;;;31.10;21.10;;;;;;;19.49;100.00;101869.63;5038646;28;20033;-71
2023/06/25 02:23:21;;;;;;;24.08;19.13;;;;;;;19.46;100.00;101872.59;5032045;28;20849;-71
2023/06/25 02:25:46;;;;;;;28.73;19.63;;;;;;;19.50;100.00;101868.66;5033171;28;20099;-71
2023/06/25 02:28:12;;;;;;;30.40;21.50;;;;;;;19.42;100.00;101863.88;5034883;28;20638;-71
2023/06/25 02:30:38;;;;;;;29.65;21.63;;;;;;;19.37;100.00;101866.09;5040980;28;20127;-74
2023/06/25 02:33:04;;;;;;;31.17;22.85;;;;;;;19.31;100.00;101861.22;5040375;28;20037;-74
2023/06/25 02:35:29;;;;;;;31.00;23.92;;;;;;;19.36;100.00;101863.53;5041066;28;20531;-71
2023/06/25 02:37:55;;;;;;;32.28;24.15;;;;;;;19.41;100.00;101858.59;5033302;28;20021;-73
2023/06/25 02:40:21;;;;;;;28.48;22.85;;;;;;;19.41;100.00;101859.44;5037860;28;20404;-71
2023/06/25 02:42:47;;;;;;;30.05;21.45;;;;;;;19.38;100.00;101859.72;5039916;28;20037;-71
2023/06/25 02:45:12;;;;;;;30.88;22.23;;;;;;;19.33;100.00;101859.25;5038225;28;20025;-71
2023/06/25 02:47:38;;;;;;;28.83;23.25;;;;;;;19.28;100.00;101856.09;5031623;28;20031;-73
2023/06/25 02:50:04;;;;;;;27.33;21.77;;;;;;;19.28;100.00;101850.69;5025415;28;20042;-73
2023/06/25 02:52:31;;;;;;;29.20;21.77;;;;;;;19.23;100.00;101843.91;5049152;28;20053;-73
2023/06/25 02:54:58;;;;;;;33.65;23.80;;;;;;;19.24;100.00;101845.66;5033871;28;20030;-73
2023/06/25 02:57:25;;;;;;;31.90;24.23;;;;;;;19.24;100.00;101845.66;5031131;28;20044;-73
2023/06/25 02:59:51;;;;;;;34.35;26.23;;;;;;;19.26;100.00;101839.09;5035038;28;20033;-73
2023/06/25 03:02:17;;;;;;;32.58;23.45;;;;;;;19.10;100.00;101842.25;5030372;28;20817;-73
2023/06/25 03:04:42;;;;;;;30.15;21.20;;;;;;;19.10;100.00;101838.69;5036217;28;20045;-73
2023/06/25 03:07:08;;;;;;;30.73;23.88;;;;;;;19.06;100.00;101839.91;5033792;28;20123;-73
2023/06/25 03:09:34;;;;;;;27.92;22.40;;;;;;;19.06;100.00;101845.31;5067525;28;20037;-73
2023/06/25 03:12:00;;;;;;;34.50;25.30;;;;;;;18.99;100.00;101846.84;5029663;28;20210;-73
2023/06/25 03:14:26;;;;;;;29.33;23.30;;;;;;;19.03;100.00;101837.50;5030832;28;20037;-73
2023/06/25 03:16:51;;;;;;;31.70;22.73;;;;;;;19.08;100.00;101843.38;5030408;28;20146;-73
2023/06/25 03:19:17;;;;;;;27.10;20.00;;;;;;;18.99;100.00;101839.59;5032666;28;20029;-73
2023/06/25 03:21:43;;;;;;;22.33;17.70;;;;;;;18.95;100.00;101846.22;5035083;28;20038;-73
2023/06/25 03:24:09;;;;;;;24.35;19.70;;;;;;;18.95;100.00;101848.06;5029716;28;20059;-73
2023/06/25 03:26:34;;;;;;;31.13;22.17;;;;;;;19.03;100.00;101845.59;5030670;28;20099;-73
2023/06/25 03:29:01;;;;;;;33.30;23.60;;;;;;;19.22;100.00;101847.59;5040301;28;20052;-73
2023/06/25 03:31:26;;;;;;;27.55;21.55;;;;;;;19.38;100.00;101834.53;5044006;28;20895;-73
2023/06/25 03:33:55;;;;;;;29.42;22.77;;;;;;;19.64;100.00;101832.34;5031884;28;20022;-73
2023/06/25 03:36:22;;;;;;;30.90;22.67;;;;;;;19.92;100.00;101828.06;5044080;28;20025;-73
2023/06/25 03:38:47;;;;;;;18.95;16.67;;;;;;;20.14;100.00;101819.78;5042405;28;20044;-73
2023/06/25 03:41:14;;;;;;;21.77;17.67;;;;;;;20.50;100.00;101816.69;5034463;28;20056;-73
2023/06/25 03:43:40;;;;;;;35.08;24.45;;;;;;;20.82;100.00;101816.47;5032972;28;20033;-73
2023/06/25 03:46:07;;;;;;;35.22;25.63;;;;;;;21.23;100.00;101812.63;5032340;28;20033;-73
2023/06/25 03:48:33;;;;;;;24.42;20.95;;;;;;;21.50;100.00;101811.97;5025149;28;20045;-73
2023/06/25 03:50:59;;;;;;;22.13;18.48;;;;;;;21.92;100.00;101807.00;5037905;28;20598;-73
2023/06/25 03:53:26;;;;;;;27.92;20.80;;;;;;;22.22;100.00;101802.34;5032598;28;20049;-73
2023/06/25 03:55:53;;;;;;;27.55;19.20;;;;;;;22.51;100.00;101799.50;5041752;28;20040;-73
2023/06/25 03:58:19;;;;;;;33.45;23.27;;;;;;;22.97;100.00;101794.94;5035441;28;20040;-73
2023/06/25 04:00:45;;;;;;;30.98;22.55;;;;;;;23.27;100.00;101793.69;5035166;28;20399;-73
2023/06/25 04:03:11;;;;;;;29.52;21.30;;;;;;;23.86;100.00;101791.25;5030830;28;20049;-73
2023/06/25 04:05:37;;;;;;;26.23;20.98;;;;;;;24.31;100.00;101791.00;5031995;28;20037;-73
2023/06/25 04:08:02;;;;;;;27.02;20.95;;;;;;;24.77;98.83;101783.31;5033449;28;20830;-71
2023/06/25 04:10:28;;;;;;;27.85;20.33;;;;;;;25.11;94.83;101793.31;5041859;28;20043;-73
2023/06/25 04:12:54;;;;;;;27.27;17.73;;;;;;;25.49;90.30;101786.28;5036620;28;20037;-73
2023/06/25 04:15:21;;;;;;;24.75;18.10;;;;;;;25.86;86.50;101787.66;5046205;28;20056;-73
2023/06/25 04:17:47;;;;;;;22.58;18.73;;;;;;;26.18;84.63;101782.06;5037548;28;20034;-71
2023/06/25 04:20:13;;;;;;;28.95;19.45;;;;;;;26.50;82.79;101785.72;5040085;28;20120;-73
2023/06/25 04:22:39;;;;;;;23.08;18.77;;;;;;;26.96;79.09;101789.41;5035292;28;20554;-71
2023/06/25 04:25:05;;;;;;;25.48;19.27;;;;;;;27.17;75.78;101786.00;5044520;28;20068;-71
2023/06/25 04:27:30;;;;;;;21.50;17.80;;;;;;;27.72;73.10;101778.53;5030863;28;20025;-71
2023/06/25 04:29:56;;;;;;;22.48;18.38;;;;;;;27.81;74.58;101782.88;5033508;28;20388;-71
2023/06/25 04:32:22;;;;;;;25.20;18.42;;;;;;;28.07;70.94;101775.06;5042143;28;20040;-71
2023/06/25 04:34:48;;;;;;;23.58;17.98;;;;;;;27.57;72.18;101776.59;5036074;28;20048;-71
2023/06/25 04:37:13;;;;;;;27.58;17.95;;;;;;;28.09;69.40;101780.34;5032900;28;20037;-71
2023/06/25 04:39:40;;;;;;;25.80;18.48;;;;;;;27.87;69.61;101773.91;5048507;28;20115;-71
2023/06/25 04:42:06;;;;;;;23.58;18.55;;;;;;;28.62;67.82;101770.94;5028573;28;20034;-71
2023/06/25 04:44:31;;;;;;;25.58;18.90;;;;;;;28.39;67.45;101770.22;5033103;28;20057;-71
2023/06/25 04:46:58;;;;;;;21.65;18.38;;;;;;;28.73;65.85;101771.47;5033179;28;20509;-74
2023/06/25 04:49:24;;;;;;;24.58;19.67;;;;;;;27.96;67.93;101772.75;5036068;28;20048;-71
2023/06/25 04:51:50;;;;;;;23.23;19.65;;;;;;;27.98;67.49;101776.19;5032021;28;20077;-71
2023/06/25 04:54:15;;;;;;;23.27;20.48;;;;;;;28.51;66.41;101771.41;5035435;28;20108;-71
2023/06/25 04:56:42;;;;;;;23.85;18.55;;;;;;;29.11;64.72;101774.84;5034993;28;20032;-71
2023/06/25 04:59:07;;;;;;;21.90;18.63;;;;;;;29.16;63.34;101767.69;5032315;28;20042;-70
2023/06/25 05:01:33;;;;;;;21.42;19.10;;;;;;;29.07;63.26;101768.06;5031809;28;20076;-71
2023/06/25 05:03:59;;;;;;;21.58;17.80;;;;;;;29.82;61.61;101769.28;5039816;28;20049;-71
2023/06/25 05:06:25;;;;;;;20.02;17.92;;;;;;;30.29;59.43;101776.81;5035510;28;20506;-71
2023/06/25 05:08:50;;;;;;;24.83;19.83;;;;;;;30.31;58.83;101771.94;5032076;28;20072;-71
2023/06/25 05:11:16;;;;;;;23.55;18.75;;;;;;;30.42;58.10;101770.50;5032331;28;20037;-71
2023/06/25 05:13:42;;;;;;;19.65;17.55;;;;;;;30.74;58.58;101771.72;5032458;28;20055;-71
2023/06/25 05:16:08;;;;;;;23.08;19.13;;;;;;;30.90;56.55;101776.81;5035347;28;20095;-71
2023/06/25 05:18:33;;;;;;;22.35;18.52;;;;;;;30.77;57.36;101773.19;5035686;28;20029;-71
2023/06/25 05:20:59;;;;;;;21.95;18.23;;;;;;;30.60;56.37;101768.03;5043214;28;20087;-71
2023/06/25 05:23:25;;;;;;;25.95;18.52;;;;;;;31.08;56.50;101767.97;5045827;28;20890;-71
2023/06/25 05:25:54;;;;;;;21.75;17.10;;;;;;;30.87;56.14;101773.63;5043035;28;20102;-71
2023/06/25 05:28:19;;;;;;;20.30;16.90;;;;;;;30.42;56.66;101770.50;5047980;28;20048;-71
2023/06/25 05:30:45;;;;;;;21.65;17.88;;;;;;;30.42;56.52;101764.97;5039932;28;20032;-71
2023/06/25 05:33:10;;;;;;;23.38;18.30;;;;;;;31.18;56.39;101764.78;5042838;28;20040;-71
2023/06/25 05:35:36;;;;;;;21.80;16.88;;;;;;;30.73;54.84;101770.00;5044962;28;20044;-71
2023/06/25 05:38:01;;;;;;;17.58;15.23;;;;;;;31.61;54.35;101762.47;5039249;28;20048;-71
2023/06/25 05:40:28;;;;;;;19.92;16.02;;;;;;;31.03;52.60;101776.00;5038812;28;20111;-71
2023/06/25 05:42:54;;;;;;;19.08;14.45;;;;;;;31.06;53.55;101770.06;5043536;28;20128;-71
2023/06/25 05:45:21;;;;;;;21.42;16.50;;;;;;;30.74;53.98;101774.47;5045486;28;20055;-71
2023/06/25 05:47:46;;;;;;;20.13;15.05;;;;;;;30.90;53.76;101773.22;5042506;28;20222;-71
2023/06/25 05:50:12;;;;;;;20.35;15.98;;;;;;;30.48;54.82;101774.34;5037391;28;20111;-71
2023/06/25 05:52:38;;;;;;;22.00;14.95;;;;;;;30.55;54.65;101769.72;5043031;28;20824;-71
2023/06/25 05:55:04;;;;;;;19.35;14.90;;;;;;;30.48;54.42;101774.34;5042081;28;20635;-72
2023/06/25 05:57:29;;;;;;;15.10;13.50;;;;;;;30.55;53.20;101765.03;5039634;28;20032;-71
2023/06/25 05:59:55;;;;;;;19.05;14.63;;;;;;;28.79;56.08;101771.53;5043354;28;20248;-71
2023/06/25 06:02:20;;;;;;;18.90;15.05;;;;;;;29.81;54.72;101756.59;5039794;28;20040;-71
2023/06/25 06:04:46;;;;;;;22.77;14.90;;;;;;;29.52;54.08;101760.38;5046802;28;20044;-72
2023/06/25 06:07:12;;;;;;;16.40;14.45;;;;;;;28.94;56.13;101754.16;5044363;28;20041;-71
2023/06/25 06:09:37;;;;;;;18.77;15.02;;;;;;;29.33;57.18;101761.94;5042401;28;20846;-72
2023/06/25 06:12:03;;;;;;;18.75;15.85;;;;;;;29.47;54.75;101749.13;5047948;28;20079;-71
2023/06/25 06:14:28;;;;;;;15.85;13.85;;;;;;;28.43;57.21;101748.75;5038779;28;20113;-71
2023/06/25 06:16:54;;;;;;;18.00;15.40;;;;;;;28.33;57.56;101754.50;5043878;28;20044;-71
2023/06/25 06:19:19;;;;;;;19.75;15.77;;;;;;;28.58;56.98;101761.38;5045721;28;20072;-72
2023/06/25 06:21:45;;;;;;;19.23;15.32;;;;;;;28.71;57.90;101757.06;5042162;28;20945;-71
2023/06/25 06:24:11;;;;;;;15.88;14.20;;;;;;;29.08;57.71;101756.03;5044524;28;20026;-71
2023/06/25 06:26:37;;;;;;;19.35;15.77;;;;;;;28.86;57.18;101755.97;5045734;28;20033;-71
2023/06/25 06:29:03;;;;;;;17.67;14.35;;;;;;;29.66;58.04;101753.97;5043928;28;20033;-71
2023/06/25 06:31:30;;;;;;;19.40;14.23;;;;;;;29.67;55.10;101758.41;5038669;28;20136;-71
2023/06/25 06:33:56;;;;;;;18.63;15.18;;;;;;;29.70;56.51;101758.03;5043171;28;20033;-71
2023/06/25 06:36:22;;;;;;;19.25;15.35;;;;;;;29.52;57.09;101760.38;5047660;28;20037;-71
2023/06/25 06:38:47;;;;;;;18.95;14.80;;;;;;;29.29;55.88;101760.63;5040143;28;20033;-71
2023/06/25 06:41:13;;;;;;;18.13;14.30;;;;;;;29.03;58.13;101759.34;5047418;28;20036;-71
2023/06/25 06:43:39;;;;;;;15.68;14.07;;;;;;;29.04;56.21;101755.56;5044437;28;21277;-71
2023/06/25 06:46:04;;;;;;;18.52;13.20;;;;;;;29.03;56.99;101747.50;5039288;28;20144;-71
2023/06/25 06:48:30;;;;;;;19.45;12.70;;;;;;;29.06;58.70;101738.88;5044097;28;20472;-72
2023/06/25 06:50:56;;;;;;;17.42;12.48;;;;;;;28.72;58.48;101747.81;5037414;28;20041;-71
2023/06/25 06:53:21;;;;;;;15.65;12.75;;;;;;;28.68;56.05;101738.25;5051177;28;20037;-74
2023/06/25 06:55:47;;;;;;;21.38;13.07;;;;;;;28.12;57.34;101734.19;5051656;28;20033;-71
2023/06/25 06:58:13;;;;;;;16.00;12.70;;;;;;;28.05;55.60;101740.59;5049381;28;20930;-71
2023/06/25 07:00:38;;;;;;;17.00;13.18;;;;;;;28.41;56.50;101739.81;5043505;28;20029;-71
2023/06/25 07:03:04;;;;;;;18.30;13.05;;;;;;;28.08;56.84;101732.88;5053116;28;20445;-71
2023/06/25 07:05:29;;;;;;;15.77;13.20;;;;;;;27.92;57.12;101738.56;5048397;28;20036;-71
2023/06/25 07:07:55;;;;;;;17.77;12.98;;;;;;;28.36;58.61;101738.50;5053251;28;20744;-71
2023/06/25 07:10:21;;;;;;;15.52;12.55;;;;;;;28.29;56.22;101734.81;5052570;28;20855;-71
2023/06/25 07:12:46;;;;;;;14.85;12.93;;;;;;;28.99;57.69;101732.47;5059846;28;20636;-71
2023/06/25 07:15:12;;;;;;;18.55;13.43;;;;;;;28.99;56.71;101726.97;5047819;28;20041;-71
2023/06/25 07:17:37;;;;;;;16.30;12.13;;;;;;;29.44;56.82;101724.81;5050729;28;20123;-72
2023/06/25 07:20:03;;;;;;;17.35;12.63;;;;;;;29.86;58.44;101732.94;5052866;28;20045;-73
2023/06/25 07:22:29;;;;;;;14.38;12.27;;;;;;;29.88;57.64;101736.34;5048930;28;20437;-72
2023/06/25 07:24:54;;;;;;;19.40;13.95;;;;;;;29.12;55.35;101744.44;5056034;28;20029;-72
2023/06/25 07:27:20;;;;;;;16.83;12.95;;;;;;;29.37;54.89;101741.28;5049775;28;20708;-72
2023/06/25 07:29:46;;;;;;;16.92;13.20;;;;;;;29.73;54.83;101745.78;5055315;28;20065;-72
2023/06/25 07:32:11;;;;;;;18.27;13.45;;;;;;;29.60;53.99;101743.78;5050078;28;20073;-72
2023/06/25 07:34:37;;;;;;;15.48;13.07;;;;;;;29.56;55.37;101737.81;5049843;28;20426;-72
2023/06/25 07:37:03;;;;;;;16.90;11.98;;;;;;;29.72;56.61;101738.56;5046031;28;20184;-72
2023/06/25 07:39:29;;;;;;;15.30;12.40;;;;;;;29.68;58.28;101729.88;5051212;28;20547;-72
2023/06/25 07:41:57;;;;;;;16.75;13.23;;;;;;;29.43;55.34;101726.72;5049320;28;20022;-73
2023/06/25 07:44:23;;;;;;;15.52;12.82;;;;;;;30.05;59.06;101728.59;5046849;28;20136;-72
2023/06/25 07:46:49;;;;;;;22.38;13.75;;;;;;;29.82;54.50;101733.53;5049861;28;20423;-73
2023/06/25 07:49:15;;;;;;;16.58;12.57;;;;;;;29.56;55.38;101728.72;5046214;28;20050;-72
2023/06/25 07:51:45;;;;;;;16.92;13.25;;;;;;;29.64;55.58;101728.59;5047249;28;20140;-71
2023/06/25 07:54:12;;;;;;;19.80;13.55;;;;;;;29.80;56.01;101733.75;5048933;28;20481;-72
2023/06/25 07:56:37;;;;;;;18.55;13.52;;;;;;;29.99;55.06;101723.94;5042494;28;20041;-72
2023/06/25 07:59:03;;;;;;;17.17;13.43;;;;;;;30.14;56.20;101724.66;5047570;28;20756;-73
2023/06/25 08:01:29;;;;;;;17.55;12.45;;;;;;;30.39;56.80;101724.13;5045382;28;20032;-74
2023/06/25 08:03:56;;;;;;;19.60;12.85;;;;;;;29.95;53.83;101722.63;5048837;28;20052;-72
2023/06/25 08:06:21;;;;;;;20.77;13.52;;;;;;;30.06;53.97;101724.78;5046925;28;20055;-72
2023/06/25 08:08:47;;;;;;;16.33;12.68;;;;;;;30.04;54.73;101723.31;5043680;28;20538;-72
2023/06/25 08:11:12;;;;;;;14.30;11.13;;;;;;;30.36;54.15;101714.38;5048857;28;20387;-71
2023/06/25 08:13:38;;;;;;;14.68;11.57;;;;;;;30.39;55.68;101718.63;5045423;28;20037;-72
2023/06/25 08:16:04;;;;;;;16.00;12.40;;;;;;;29.75;52.12;101713.41;5050960;28;20033;-71
2023/06/25 08:18:30;;;;;;;16.67;12.85;;;;;;;29.63;53.30;101716.75;5047853;28;20357;-72
2023/06/25 08:20:55;;;;;;;18.52;12.25;;;;;;;29.96;52.47;101717.97;5044682;28;20428;-72
2023/06/25 08:23:21;;;;;;;16.45;12.18;;;;;;;30.45;55.55;101715.03;5043147;28;20029;-72
2023/06/25 08:25:47;;;;;;;20.38;12.30;;;;;;;30.27;53.55;101723.00;5043998;28;20044;-72
2023/06/25 08:28:13;;;;;;;15.75;12.70;;;;;;;30.04;54.04;101720.56;5041240;28;20091;-72
2023/06/25 08:30:39;;;;;;;16.92;11.93;;;;;;;30.09;54.75;101718.91;5042651;28;20107;-73
2023/06/25 08:33:04;;;;;;;17.73;11.43;;;;;;;30.14;52.35;101712.81;5046653;28;20040;-72
2023/06/25 08:35:30;;;;;;;14.55;11.52;;;;;;;30.36;52.51;101705.25;5046531;28;20665;-71
2023/06/25 08:37:55;;;;;;;18.75;11.68;;;;;;;30.39;52.94;101707.63;5045973;28;20041;-71
2023/06/25 08:40:22;;;;;;;15.82;11.25;;;;;;;30.72;51.58;101707.69;5045038;28;20110;-71
2023/06/25 08:42:47;;;;;;;18.13;12.38;;;;;;;30.36;52.51;101706.09;5045101;28;20041;-72
2023/06/25 08:45:13;;;;;;;12.35;10.48;;;;;;;30.65;53.09;101704.06;5042218;28;20033;-72
2023/06/25 08:47:40;;;;;;;11.38;9.70;;;;;;;30.69;52.52;101706.19;5041399;28;20758;-71
2023/06/25 08:50:08;;;;;;;13.30;10.30;;;;;;;30.80;52.78;101696.50;5038911;28;20048;-72
2023/06/25 08:52:34;;;;;;;13.45;10.00;;;;;;;30.10;50.20;101693.06;5045850;28;20049;-72
2023/06/25 08:54:59;;;;;;;14.85;10.35;;;;;;;30.25;51.51;101690.19;5045039;28;20029;-74
2023/06/25 08:57:25;;;;;;;17.02;11.13;;;;;;;30.41;53.54;101691.72;5045737;28;20033;-74
2023/06/25 08:59:51;;;;;;;13.85;10.80;;;;;;;31.00;54.20;101687.41;5042952;28;20655;-72
2023/06/25 09:02:17;;;;;;;14.05;11.02;;;;;;;30.69;52.80;101686.06;5046984;28;20037;-72
2023/06/25 09:04:43;;;;;;;19.15;11.07;;;;;;;30.95;48.72;101683.38;5048028;28;20033;-74
2023/06/25 09:07:15;;;;;;;12.93;10.68;;;;;;;30.20;50.47;101687.22;5042034;28;20032;-72
2023/06/25 09:09:44;;;;;;;19.02;10.10;;;;;;;30.51;50.06;101688.56;5043388;28;20036;-71
2023/06/25 09:12:10;;;;;;;13.68;9.77;;;;;;;30.65;52.73;101682.88;5040779;28;20079;-71
2023/06/25 09:14:36;;;;;;;12.75;9.43;;;;;;;30.38;51.20;101681.16;5040542;28;20672;-73
2023/06/25 09:17:03;;;;;;;13.38;9.95;;;;;;;30.65;52.73;101679.28;5052407;28;20306;-74
2023/06/25 09:19:28;;;;;;;11.73;9.07;;;;;;;30.53;51.45;101681.81;5048732;28;20041;-72
2023/06/25 09:21:54;;;;;;;12.75;9.80;;;;;;;30.46;51.73;101680.09;5043248;28;20033;-71
2023/06/25 09:24:21;;;;;;;11.30;9.73;;;;;;;30.36;51.88;101674.97;5038000;28;20033;-72
2023/06/25 09:26:48;;;;;;;14.95;9.95;;;;;;;30.92;51.67;101669.16;5048611;28;20502;-71
2023/06/25 09:29:15;;;;;;;11.98;9.85;;;;;;;30.50;51.41;101662.94;5052644;28;20028;-71
2023/06/25 09:31:43;;;;;;;12.93;9.55;;;;;;;30.34;48.81;101674.34;5041703;28;20083;-71
2023/06/25 09:34:08;;;;;;;11.95;10.13;;;;;;;30.53;51.18;101669.97;5044376;28;20039;-71
2023/06/25 09:36:35;;;;;;;11.85;9.10;;;;;;;31.05;49.64;101662.81;5046151;28;20470;-73
2023/06/25 09:39:02;;;;;;;13.23;8.93;;;;;;;31.32;50.53;101658.13;5038887;28;20036;-71
2023/06/25 09:41:31;;;;;;;11.82;9.38;;;;;;;30.71;53.06;101658.34;5054197;28;20048;-72
2023/06/25 09:43:57;;;;;;;13.23;9.88;;;;;;;30.78;53.13;101659.22;5039034;28;20029;-71
2023/06/25 09:46:24;;;;;;;17.48;10.25;;;;;;;31.19;50.89;101651.56;5047491;28;20033;-73
2023/06/25 09:48:55;;;;;;;14.23;10.20;;;;;;;31.42;51.60;101648.38;5049480;28;20830;-72
2023/06/25 09:51:26;;;;;;;13.45;9.85;;;;;;;30.97;52.05;101647.31;5045519;28;20028;-72
2023/06/25 09:53:53;;;;;;;11.13;9.45;;;;;;;31.06;51.76;101645.22;5050816;28;20132;-72
2023/06/25 09:56:21;;;;;;;11.88;9.82;;;;;;;31.46;49.94;101646.88;5044883;28;20278;-72
2023/06/25 09:58:46;;;;;;;10.85;9.23;;;;;;;31.26;51.28;101648.81;5046984;28;20041;-71
2023/06/25 10:01:13;;;;;;;10.68;8.73;;;;;;;31.25;53.84;101647.09;5048229;28;20044;-72
2023/06/25 10:03:39;;;;;;;13.27;9.45;;;;;;;30.97;51.83;101643.72;5044271;28;20041;-71
2023/06/25 10:06:05;;;;;;;15.70;12.05;;;;;;;30.85;51.74;101647.13;5046515;28;20045;-72
2023/06/25 10:08:32;;;;;;;14.23;11.43;;;;;;;31.00;52.38;101643.31;5040822;28;20021;-72
2023/06/25 10:11:00;;;;;;;14.35;11.50;;;;;;;30.93;52.89;101643.34;5046036;28;20025;-72
2023/06/25 10:13:26;;;;;;;17.80;10.55;;;;;;;31.20;49.82;101639.47;5039650;28;20048;-73
2023/06/25 10:15:59;;;;;;;16.55;11.70;;;;;;;30.53;51.21;101639.69;5045095;28;20052;-72
2023/06/25 10:18:24;;;;;;;12.98;11.20;;;;;;;30.26;54.08;101641.50;5044758;28;20041;-72
2023/06/25 10:20:50;;;;;;;18.30;11.60;;;;;;;30.64;51.57;101631.63;5081390;27;20038;-72
2023/06/25 10:23:22;;;;;;;15.70;11.07;;;;;;;30.95;51.69;101624.66;5045042;28;20036;-72
2023/06/25 10:25:56;;;;;;;13.15;9.80;;;;;;;31.43;56.76;101624.44;5047266;28;20040;-72
2023/06/25 10:28:29;;;;;;;14.05;10.20;;;;;;;30.55;51.36;101615.53;5050466;28;20061;-72
2023/06/25 10:30:55;;;;;;;10.25;8.45;;;;;;;31.21;55.36;101619.13;5043633;28;20481;-72
2023/06/25 10:33:22;;;;;;;14.48;9.55;;;;;;;31.48;54.33;101612.72;5050533;28;20029;-72
2023/06/25 10:35:55;;;;;;;12.60;9.30;;;;;;;31.18;50.35;101610.44;5047470;28;20033;-72
2023/06/25 10:38:22;;;;;;;10.55;8.68;;;;;;;31.07;52.24;101611.09;5046545;28;20119;-71
2023/06/25 10:40:47;;;;;;;12.73;8.63;;;;;;;31.23;49.87;101607.91;5049868;28;20043;-72
2023/06/25 10:43:19;;;;;;;12.95;9.70;;;;;;;31.28;53.15;101607.25;5045643;28;20048;-72
2023/06/25 10:45:52;;;;;;;12.13;9.80;;;;;;;31.34;54.34;101604.50;5051784;28;20034;-72
2023/06/25 10:48:19;;;;;;;12.32;9.88;;;;;;;31.62;53.30;101604.19;5040243;28;20055;-72
2023/06/25 10:50:45;;;;;;;14.13;9.00;;;;;;;31.59;51.29;101607.41;5047086;28;20033;-72
2023/06/25 10:53:13;;;;;;;12.25;8.43;;;;;;;31.65;52.65;101600.16;5036676;28;20045;-72
2023/06/25 10:55:40;;;;;;;9.13;7.55;;;;;;;32.10;52.40;101594.66;5045907;28;20037;-72
2023/06/25 10:58:06;;;;;;;8.65;7.10;;;;;;;32.12;51.04;101589.75;5043435;28;20033;-72
2023/06/25 11:00:32;;;;;;;11.65;6.93;;;;;;;32.03;51.41;101593.84;5039189;28;21316;-72
2023/06/25 11:02:58;;;;;;;10.02;7.80;;;;;;;32.23;48.64;101589.03;5045316;28;20037;-72